Couco, Portugal

1:28 AM WET on March 02, 2015 (GMT +0000)
Vale do Cortico | Change Station
CLOSE
Current Station
Personal Weather Station
Location: Santarém, SANTARéM
Elevation: 449 ft
Nearby Weather Stations

Elev 449 ft 38.83 °N, 8.41 °W | Updated 4 seconds ago

Mostly Cloudy
Mostly Cloudy
56.7 °F
Feels Like 56.7 °F
N
0.0
Wind Variable Wind from ESE
Gusts 0.0 mph

Today
High -- | Low -- °F
--% Chance of Precip.
Yesterday
High -- | Low -- °F
Precip. -- in
7:05 AM 6:26 PM
Waxing Gibbous, 88% visible
Pressure 30.36 in
Visibility 6.2 miles
Clouds Few 400 ft
Mostly Cloudy 600 ft
Dew Point 55 °F
Humidity 93%
Rainfall 0.00 in
Snow Depth Not available.
UV 0.0 out of 12
Pollen Not available.
Air Quality Not available.
Flu Activity Not available.
METAR LPPT 020100Z 31006KT 9999 FEW004 BKN006 13/12 Q1028

More Conditions Fewer Conditions

Pressure 30.36 in
Visibility 6.2 miles
Clouds Few 400 ft
Mostly Cloudy 600 ft
Dew Point 55 °F
Humidity 93%
Rainfall 0.00 in
Snow Depth Not available.
UV 0.0 out of 12
Pollen Not available.
Air Quality Not available.
Flu Activity Not available.
METAR LPPT 020100Z 31006KT 9999 FEW004 BKN006 13/12 Q1028

More Conditions Fewer Conditions

10-Day Weather Forecast

Almanac

Astronomy

Mar. 02, 2015 Rise Set
Actual Time
Civil Twilight
Nautical Twilight
Astronomical Twilight
Moon
Length of Visible Light
Length of Day
Tomorrow will be .
, % of the Moon is Illuminated

Today's Extremes

Country Highs Country Lows

Community

WunderPhotos

Upload Photos

1,801,678 photos uploaded!

WunderBlogs® & News

Nearby

Air Quality

  Air Quality AQ Index Pollutant
Not available.

Snow Depth

Station Depth Elevation

Earthquake Activity

City Distance Mag. Time & Date
Minimum magnitude displayed is 2.5.

Coastal Water Temperatures

Place Temperature

Nearby Weather Stations